Flight Track Log - Related Links

Times and Time Zones

All times are in EDT time to prevent confusion due to time zone crossing. See the SWQ803 flight status page for this flight to view local times or setup timezone preferences in your user account.

Time Position Orientation Groundspeed Altitude Reporting Facility
EDT Latitude Longitude Course Direction KTS MPH feet Rate Location/Type
Sun 11:39:16 PM 40.4703 -80.3186 270° West 208 239 3,700  Level Cleveland Center
Sun 11:40:17 PM 40.4722 -80.4103 272° West 255 293 6,200 2,852 Climbing Cleveland Center
Sun 11:41:18 PM 40.4719 -80.5300 270° West 276 318 9,500 2,459 Climbing Cleveland Center
Sun 11:42:19 PM 40.4711 -80.6411 269° West 303 349 11,200 2,331 Climbing Cleveland Center
Sun 11:43:19 PM 40.4706 -80.7681 270° West 343 395 14,200 2,926 Climbing Cleveland Center
Sun 11:44:00 PM 40.4667 -80.9809 270° West  Level FlightAware Approximate
Sun 11:44:20 PM 40.4703 -80.8986 270° West 357 411 17,100  Level Cleveland Center
Sun 11:45:21 PM 40.4708 -81.0317 270° West 363 418 19,400 2,118 Climbing Cleveland Center
Sun 11:45:45 PM 40.4697 -81.0892 269° West 377 434 20,100 2,259 Climbing Cleveland Center
Sun 11:46:46 PM 40.4683 -81.2350 269° West 397 457 22,600 2,557 Climbing Cleveland Center
Sun 11:47:47 PM 40.4808 -81.3744 277° West 387 445 25,300 2,033 Climbing Cleveland Center
Sun 11:48:47 PM 40.4994 -81.5044 281° West 379 436 26,700 1,289 Climbing Cleveland Center
Sun 11:49:48 PM 40.5217 -81.6517 281° West 401 461 27,900 1,672 Climbing Cleveland Center
Sun 11:50:49 PM 40.5428 -81.8017 281° West 410 472 30,100 2,016 Climbing Cleveland Center
Sun 11:51:50 PM 40.5628 -81.9422 281° West 391 450 32,000 942 Climbing Cleveland Center
Sun 11:52:50 PM 40.5836 -82.0833 281° West 390 449 32,000  Level Cleveland Center
Sun 11:53:51 PM 40.6028 -82.2236 280° West 387 445 32,000  Level Cleveland Center
Sun 11:54:52 PM 40.6228 -82.3625 281° West 385 443 32,000  Level Cleveland Center
Sun 11:55:52 PM 40.6425 -82.4997 281° West 380 437 32,000  Level Cleveland Center
Sun 11:56:53 PM 40.6603 -82.6378 280° West 379 436 32,000  Level Cleveland Center
Sun 11:57:54 PM 40.6789 -82.7758 280° West 379 436 32,000  Level Cleveland Center
Sun 11:58:54 PM 40.6975 -82.9083 281° West 379 436 32,000  Level Cleveland Center
Sun 11:59:55 PM 40.7153 -83.0453 280° West 379 436 32,000  Level Cleveland Center
Mon 12:00:56 AM 40.7383 -83.1808 283° West 380 437 32,000  Level Cleveland Center
Mon 12:01:56 AM 40.7672 -83.3117 286° West 376 433 32,000  Level Cleveland Center
Mon 12:02:57 AM 40.8028 -83.4711 286° West 377 434 32,000  Level Cleveland Center
Mon 12:03:58 AM 40.8317 -83.6033 286° West 377 434 32,000  Level Cleveland Center
Mon 12:04:58 AM 40.8603 -83.7364 286° West 378 435 32,000  Level Cleveland Center
Mon 12:05:59 AM 40.8892 -83.8686 286° West 378 435 32,000  Level Cleveland Center
Mon 12:06:59 AM 40.9142 -83.9861 286° West 378 435 32,000  Level Cleveland Center
Mon 12:08:12 AM 40.9483 -84.1481 286° West 380 437 32,000  Level Chicago Center
Mon 12:09:12 AM 40.9825 -84.3106 286° West 381 438 32,000  Level Chicago Center
Mon 12:10:13 AM 41.0111 -84.4478 285° West 384 442 32,000  Level Chicago Center
Mon 12:11:13 AM 41.0383 -84.5847 285° West 385 443 32,000  Level Chicago Center
Mon 12:12:14 AM 41.0669 -84.7225 285° West 385 443 32,000  Level Chicago Center
Mon 12:13:14 AM 41.0947 -84.8603 285° West 385 443 32,000  Level Chicago Center
Mon 12:14:15 AM 41.1222 -84.9986 285° West 386 444 32,000  Level Chicago Center
Mon 12:15:15 AM 41.1508 -85.1375 285° West 386 444 32,000  Level Chicago Center
Mon 12:16:15 AM 41.1783 -85.2758 285° West 386 444 32,000  Level Chicago Center
Mon 12:17:16 AM 41.2069 -85.4133 286° West 386 444 32,000  Level Chicago Center
Mon 12:18:16 AM 41.2344 -85.5542 285° West 388 447 32,000  Level Chicago Center
Mon 12:19:17 AM 41.2622 -85.6936 285° West 386 444 32,000  Level Chicago Center
Mon 12:20:17 AM 41.2886 -85.8322 284° West 384 442 32,000 -446 Level Chicago Center
Mon 12:21:18 AM 41.3153 -85.9714 284° West 385 443 31,100 -1,537 Descending Chicago Center
Mon 12:22:18 AM 41.3425 -86.1122 284° West 390 449 28,900 -2,250 Descending Chicago Center
Mon 12:23:18 AM 41.3700 -86.2589 284° West 403 464 26,600 -2,430 Descending Chicago Center
Mon 12:24:19 AM 41.3989 -86.4094 284° West 414 476 24,000 -2,479 Descending Chicago Center
Mon 12:25:19 AM 41.4261 -86.5514 284° West 397 457 21,600 -2,331 Descending Chicago Center
Mon 12:26:20 AM 41.4514 -86.6892 284° West 384 442 19,300 -2,271 Descending Chicago Center
Mon 12:28:16 AM 41.5000 -86.9500 284° West 368 423 14,900 -2,287 Descending Chicago TRACON
Mon 12:29:21 AM 41.5297 -87.0958 285° West 369 425 12,400 -1,920 Descending Chicago Center
Mon 12:30:21 AM 41.5528 -87.2264 283° West 361 415 10,900 -694 Descending Chicago Center
Mon 12:31:22 AM 41.5933 -87.3236 299° West 300 345 11,000  Climbing Chicago Center
Mon 12:32:22 AM 41.6478 -87.4017 313° West 292 336 10,900 -942 Descending Chicago Center
Mon 12:33:23 AM 41.7133 -87.4758 320° Northwest 288 331 9,100 -1,736 Descending Chicago Center
Mon 12:34:23 AM 41.7811 -87.5264 331° Northwest 282 325 7,400 -1,650 Descending Chicago Center
Mon 12:35:23 AM 41.8503 -87.5731 333° Northwest 279 321 5,800 -1,537 Descending Chicago Center
Mon 12:36:24 AM 41.9161 -87.6264 329° Northwest 279 321 4,300 -1,500 Descending Chicago Center
Mon 12:37:11 AM 41.9667 -87.6833 320° Northwest 270 311 3,100 -1,008 Descending Chicago TRACON
Mon 12:38:23 AM 41.9667 -87.7667 270° West 186 214 2,300 -719 Descending Chicago TRACON
Mon 12:40:23 AM 41.9667 -87.8667 270° West 133 153 800 -750 Descending Chicago TRACON

Login

Don't have an account? Register now (free) for customized features, flight alerts, and more!